sensor_id;sensor_type;location;lat;lon;timestamp;temperature;humidity
70456;DHT22;57916;51.996;5.180;2023-03-12T00:00:14;7.20;58.10
70456;DHT22;57916;51.996;5.180;2023-03-12T00:02:41;7.10;58.50
70456;DHT22;57916;51.996;5.180;2023-03-12T00:05:08;7.20;58.70
70456;DHT22;57916;51.996;5.180;2023-03-12T00:07:35;7.20;58.60
70456;DHT22;57916;51.996;5.180;2023-03-12T00:10:03;7.10;58.30
70456;DHT22;57916;51.996;5.180;2023-03-12T00:12:31;7.10;58.40
70456;DHT22;57916;51.996;5.180;2023-03-12T00:14:58;7.10;59.60
70456;DHT22;57916;51.996;5.180;2023-03-12T00:17:25;7.10;58.20
70456;DHT22;57916;51.996;5.180;2023-03-12T00:19:52;7.10;58.30
70456;DHT22;57916;51.996;5.180;2023-03-12T00:22:19;7.10;58.30
70456;DHT22;57916;51.996;5.180;2023-03-12T00:24:52;7.10;58.20
70456;DHT22;57916;51.996;5.180;2023-03-12T00:27:19;7.00;58.40
70456;DHT22;57916;51.996;5.180;2023-03-12T00:29:46;7.00;58.50
70456;DHT22;57916;51.996;5.180;2023-03-12T00:32:13;7.10;58.50
70456;DHT22;57916;51.996;5.180;2023-03-12T00:34:40;7.10;58.60
70456;DHT22;57916;51.996;5.180;2023-03-12T00:37:08;7.10;58.80
70456;DHT22;57916;51.996;5.180;2023-03-12T00:39:35;7.10;58.80
70456;DHT22;57916;51.996;5.180;2023-03-12T00:42:02;7.10;58.90
70456;DHT22;57916;51.996;5.180;2023-03-12T00:44:29;7.10;58.90
70456;DHT22;57916;51.996;5.180;2023-03-12T00:46:56;7.10;58.90
70456;DHT22;57916;51.996;5.180;2023-03-12T00:49:23;7.10;59.10
70456;DHT22;57916;51.996;5.180;2023-03-12T00:51:50;7.10;59.20
70456;DHT22;57916;51.996;5.180;2023-03-12T00:54:17;7.10;59.30
70456;DHT22;57916;51.996;5.180;2023-03-12T00:56:44;7.00;59.50
70456;DHT22;57916;51.996;5.180;2023-03-12T00:59:13;7.00;59.60
70456;DHT22;57916;51.996;5.180;2023-03-12T01:01:41;7.10;59.80
70456;DHT22;57916;51.996;5.180;2023-03-12T01:04:08;7.00;59.80
70456;DHT22;57916;51.996;5.180;2023-03-12T01:06:35;7.00;60.00
70456;DHT22;57916;51.996;5.180;2023-03-12T01:09:04;7.00;60.20
70456;DHT22;57916;51.996;5.180;2023-03-12T01:11:32;6.90;60.30
70456;DHT22;57916;51.996;5.180;2023-03-12T01:14:00;6.90;60.50
70456;DHT22;57916;51.996;5.180;2023-03-12T01:16:28;6.90;60.50
70456;DHT22;57916;51.996;5.180;2023-03-12T01:18:57;6.90;60.70
70456;DHT22;57916;51.996;5.180;2023-03-12T01:21:25;6.90;60.70
70456;DHT22;57916;51.996;5.180;2023-03-12T01:23:53;6.90;60.80
70456;DHT22;57916;51.996;5.180;2023-03-12T01:26:20;6.90;60.90
70456;DHT22;57916;51.996;5.180;2023-03-12T01:28:48;6.90;61.00
70456;DHT22;57916;51.996;5.180;2023-03-12T01:31:17;6.90;61.10
70456;DHT22;57916;51.996;5.180;2023-03-12T01:33:48;6.90;61.00
70456;DHT22;57916;51.996;5.180;2023-03-12T01:36:21;6.90;61.00
70456;DHT22;57916;51.996;5.180;2023-03-12T01:38:54;7.00;60.80
70456;DHT22;57916;51.996;5.180;2023-03-12T01:41:24;7.00;60.80
70456;DHT22;57916;51.996;5.180;2023-03-12T01:43:52;7.00;60.80
70456;DHT22;57916;51.996;5.180;2023-03-12T01:46:32;7.00;60.80
70456;DHT22;57916;51.996;5.180;2023-03-12T01:49:33;7.00;60.80
70456;DHT22;57916;51.996;5.180;2023-03-12T01:52:01;7.10;60.70
70456;DHT22;57916;51.996;5.180;2023-03-12T01:54:44;7.10;60.70
70456;DHT22;57916;51.996;5.180;2023-03-12T01:57:21;7.10;61.60
70456;DHT22;57916;51.996;5.180;2023-03-12T01:59:52;7.10;60.70
70456;DHT22;57916;51.996;5.180;2023-03-12T02:02:20;7.20;60.80
70456;DHT22;57916;51.996;5.180;2023-03-12T02:07:42;7.20;60.60
70456;DHT22;57916;51.996;5.180;2023-03-12T02:10:09;7.20;60.70
70456;DHT22;57916;51.996;5.180;2023-03-12T02:12:36;7.10;60.70
70456;DHT22;57916;51.996;5.180;2023-03-12T02:15:04;7.20;60.80
70456;DHT22;57916;51.996;5.180;2023-03-12T02:17:31;7.20;60.80
70456;DHT22;57916;51.996;5.180;2023-03-12T02:22:50;7.20;60.40
70456;DHT22;57916;51.996;5.180;2023-03-12T02:25:30;7.10;60.40
70456;DHT22;57916;51.996;5.180;2023-03-12T02:28:03;7.10;61.40
70456;DHT22;57916;51.996;5.180;2023-03-12T02:30:33;7.10;60.60
70456;DHT22;57916;51.996;5.180;2023-03-12T02:33:04;7.10;61.60
70456;DHT22;57916;51.996;5.180;2023-03-12T02:35:32;7.20;60.80
70456;DHT22;57916;51.996;5.180;2023-03-12T02:37:59;7.20;60.80
70456;DHT22;57916;51.996;5.180;2023-03-12T02:40:39;7.20;60.90
70456;DHT22;57916;51.996;5.180;2023-03-12T02:43:08;7.10;60.90
70456;DHT22;57916;51.996;5.180;2023-03-12T02:45:37;7.10;62.10
70456;DHT22;57916;51.996;5.180;2023-03-12T02:48:07;7.10;61.30
70456;DHT22;57916;51.996;5.180;2023-03-12T02:50:34;7.10;61.40
70456;DHT22;57916;51.996;5.180;2023-03-12T02:53:02;7.10;61.20
70456;DHT22;57916;51.996;5.180;2023-03-12T02:55:29;7.10;61.40
70456;DHT22;57916;51.996;5.180;2023-03-12T02:57:56;7.10;61.50
70456;DHT22;57916;51.996;5.180;2023-03-12T03:00:23;7.10;61.40
70456;DHT22;57916;51.996;5.180;2023-03-12T03:02:52;7.00;61.30
70456;DHT22;57916;51.996;5.180;2023-03-12T03:05:19;7.00;61.30
70456;DHT22;57916;51.996;5.180;2023-03-12T03:07:47;7.00;61.20
70456;DHT22;57916;51.996;5.180;2023-03-12T03:10:15;7.00;61.10
70456;DHT22;57916;51.996;5.180;2023-03-12T03:12:43;7.00;61.10
70456;DHT22;57916;51.996;5.180;2023-03-12T03:15:10;6.90;61.30
70456;DHT22;57916;51.996;5.180;2023-03-12T03:17:38;6.90;61.50
70456;DHT22;57916;51.996;5.180;2023-03-12T03:20:05;6.90;61.70
70456;DHT22;57916;51.996;5.180;2023-03-12T03:22:37;6.80;61.80
70456;DHT22;57916;51.996;5.180;2023-03-12T03:25:05;6.80;61.70
70456;DHT22;57916;51.996;5.180;2023-03-12T03:27:33;6.80;61.60
70456;DHT22;57916;51.996;5.180;2023-03-12T03:30:00;6.80;61.50
70456;DHT22;57916;51.996;5.180;2023-03-12T03:32:31;6.80;61.50
70456;DHT22;57916;51.996;5.180;2023-03-12T03:34:58;6.80;61.70
70456;DHT22;57916;51.996;5.180;2023-03-12T03:37:26;6.80;61.90
70456;DHT22;57916;51.996;5.180;2023-03-12T03:39:53;6.80;62.10
70456;DHT22;57916;51.996;5.180;2023-03-12T03:42:20;6.80;62.10
70456;DHT22;57916;51.996;5.180;2023-03-12T03:44:47;6.80;62.30
70456;DHT22;57916;51.996;5.180;2023-03-12T03:47:14;6.80;62.70
70456;DHT22;57916;51.996;5.180;2023-03-12T03:49:41;6.70;63.30
70456;DHT22;57916;51.996;5.180;2023-03-12T03:52:09;6.70;64.10
70456;DHT22;57916;51.996;5.180;2023-03-12T03:54:36;6.70;64.50
70456;DHT22;57916;51.996;5.180;2023-03-12T03:57:05;6.70;64.70
70456;DHT22;57916;51.996;5.180;2023-03-12T03:59:32;6.70;64.90
70456;DHT22;57916;51.996;5.180;2023-03-12T04:01:59;6.70;65.30
70456;DHT22;57916;51.996;5.180;2023-03-12T04:04:29;6.70;65.50
70456;DHT22;57916;51.996;5.180;2023-03-12T04:06:57;6.70;65.70
70456;DHT22;57916;51.996;5.180;2023-03-12T04:09:24;6.80;65.90
70456;DHT22;57916;51.996;5.180;2023-03-12T04:11:52;6.80;66.10
70456;DHT22;57916;51.996;5.180;2023-03-12T04:14:19;6.80;66.10
70456;DHT22;57916;51.996;5.180;2023-03-12T04:16:46;6.80;66.10
70456;DHT22;57916;51.996;5.180;2023-03-12T04:19:13;6.80;66.10
70456;DHT22;57916;51.996;5.180;2023-03-12T04:21:40;6.80;65.90
70456;DHT22;57916;51.996;5.180;2023-03-12T04:24:13;6.80;66.00
70456;DHT22;57916;51.996;5.180;2023-03-12T04:26:41;6.80;66.20
70456;DHT22;57916;51.996;5.180;2023-03-12T04:29:08;6.70;66.20
70456;DHT22;57916;51.996;5.180;2023-03-12T04:31:35;6.70;66.30
70456;DHT22;57916;51.996;5.180;2023-03-12T04:34:03;6.80;66.30
70456;DHT22;57916;51.996;5.180;2023-03-12T04:36:30;6.80;66.30
70456;DHT22;57916;51.996;5.180;2023-03-12T04:38:57;6.80;66.40
70456;DHT22;57916;51.996;5.180;2023-03-12T04:41:29;6.80;66.40
70456;DHT22;57916;51.996;5.180;2023-03-12T04:44:02;6.80;66.40
70456;DHT22;57916;51.996;5.180;2023-03-12T04:46:29;6.80;66.60
70456;DHT22;57916;51.996;5.180;2023-03-12T04:48:57;6.80;66.60
70456;DHT22;57916;51.996;5.180;2023-03-12T04:51:30;6.80;66.60
70456;DHT22;57916;51.996;5.180;2023-03-12T04:53:59;6.80;66.70
70456;DHT22;57916;51.996;5.180;2023-03-12T04:56:26;6.90;66.60
70456;DHT22;57916;51.996;5.180;2023-03-12T04:58:57;6.80;66.70
70456;DHT22;57916;51.996;5.180;2023-03-12T05:01:27;6.80;66.90
70456;DHT22;57916;51.996;5.180;2023-03-12T05:03:55;6.80;67.00
70456;DHT22;57916;51.996;5.180;2023-03-12T05:06:22;6.70;67.20
70456;DHT22;57916;51.996;5.180;2023-03-12T05:08:50;6.70;67.30
70456;DHT22;57916;51.996;5.180;2023-03-12T05:11:17;6.70;67.50
70456;DHT22;57916;51.996;5.180;2023-03-12T05:13:45;6.70;67.70
70456;DHT22;57916;51.996;5.180;2023-03-12T05:16:13;6.70;67.70
70456;DHT22;57916;51.996;5.180;2023-03-12T05:18:40;6.70;67.80
70456;DHT22;57916;51.996;5.180;2023-03-12T05:21:16;6.70;67.90
70456;DHT22;57916;51.996;5.180;2023-03-12T05:23:44;6.70;68.10
70456;DHT22;57916;51.996;5.180;2023-03-12T05:28:43;6.70;68.10
70456;DHT22;57916;51.996;5.180;2023-03-12T05:31:10;6.70;68.20
70456;DHT22;57916;51.996;5.180;2023-03-12T05:33:38;6.80;68.40
70456;DHT22;57916;51.996;5.180;2023-03-12T05:36:07;6.80;68.30
70456;DHT22;57916;51.996;5.180;2023-03-12T05:38:34;6.80;68.30
70456;DHT22;57916;51.996;5.180;2023-03-12T05:41:02;6.80;68.30
70456;DHT22;57916;51.996;5.180;2023-03-12T05:43:32;6.80;68.20
70456;DHT22;57916;51.996;5.180;2023-03-12T05:46:02;6.90;69.30
70456;DHT22;57916;51.996;5.180;2023-03-12T05:48:30;6.90;68.30
70456;DHT22;57916;51.996;5.180;2023-03-12T05:50:57;6.90;68.30
70456;DHT22;57916;51.996;5.180;2023-03-12T05:53:25;6.90;68.40
70456;DHT22;57916;51.996;5.180;2023-03-12T05:55:53;6.90;68.60
70456;DHT22;57916;51.996;5.180;2023-03-12T05:58:20;7.00;68.80
70456;DHT22;57916;51.996;5.180;2023-03-12T06:00:48;7.00;69.00
70456;DHT22;57916;51.996;5.180;2023-03-12T06:03:15;7.00;69.40
70456;DHT22;57916;51.996;5.180;2023-03-12T06:05:43;7.00;69.90
70456;DHT22;57916;51.996;5.180;2023-03-12T06:08:11;7.10;70.30
70456;DHT22;57916;51.996;5.180;2023-03-12T06:10:38;7.10;70.70
70456;DHT22;57916;51.996;5.180;2023-03-12T06:13:06;7.00;71.20
70456;DHT22;57916;51.996;5.180;2023-03-12T06:15:34;7.00;71.60
70456;DHT22;57916;51.996;5.180;2023-03-12T06:18:03;7.00;72.10
70456;DHT22;57916;51.996;5.180;2023-03-12T06:20:31;6.90;72.50
70456;DHT22;57916;51.996;5.180;2023-03-12T06:22:58;6.90;72.80
70456;DHT22;57916;51.996;5.180;2023-03-12T06:25:25;6.80;73.10
70456;DHT22;57916;51.996;5.180;2023-03-12T06:27:52;6.80;73.40
70456;DHT22;57916;51.996;5.180;2023-03-12T06:30:19;6.90;73.60
70456;DHT22;57916;51.996;5.180;2023-03-12T06:32:46;6.80;73.60
70456;DHT22;57916;51.996;5.180;2023-03-12T06:35:13;6.90;73.80
70456;DHT22;57916;51.996;5.180;2023-03-12T06:37:40;6.90;74.00
70456;DHT22;57916;51.996;5.180;2023-03-12T06:40:07;6.90;74.10
70456;DHT22;57916;51.996;5.180;2023-03-12T06:42:38;6.90;74.30
70456;DHT22;57916;51.996;5.180;2023-03-12T06:45:05;6.90;74.40
70456;DHT22;57916;51.996;5.180;2023-03-12T06:47:32;6.90;74.70
70456;DHT22;57916;51.996;5.180;2023-03-12T06:49:59;6.90;75.00
70456;DHT22;57916;51.996;5.180;2023-03-12T06:52:26;6.90;75.30
70456;DHT22;57916;51.996;5.180;2023-03-12T06:54:53;6.90;75.40
70456;DHT22;57916;51.996;5.180;2023-03-12T06:57:20;6.90;75.50
70456;DHT22;57916;51.996;5.180;2023-03-12T06:59:47;6.90;75.60
70456;DHT22;57916;51.996;5.180;2023-03-12T07:02:16;6.80;75.70
70456;DHT22;57916;51.996;5.180;2023-03-12T07:04:43;6.80;75.80
70456;DHT22;57916;51.996;5.180;2023-03-12T07:07:10;6.80;76.00
70456;DHT22;57916;51.996;5.180;2023-03-12T07:09:37;6.80;76.30
70456;DHT22;57916;51.996;5.180;2023-03-12T07:12:04;6.80;76.40
70456;DHT22;57916;51.996;5.180;2023-03-12T07:14:31;6.80;76.50
70456;DHT22;57916;51.996;5.180;2023-03-12T07:16:58;6.80;76.70
70456;DHT22;57916;51.996;5.180;2023-03-12T07:19:27;6.80;76.90
70456;DHT22;57916;51.996;5.180;2023-03-12T07:21:56;6.80;77.00
70456;DHT22;57916;51.996;5.180;2023-03-12T07:24:23;6.90;78.10
70456;DHT22;57916;51.996;5.180;2023-03-12T07:26:49;6.90;77.30
70456;DHT22;57916;51.996;5.180;2023-03-12T07:29:16;6.90;77.40
70456;DHT22;57916;51.996;5.180;2023-03-12T07:31:43;6.90;78.30
70456;DHT22;57916;51.996;5.180;2023-03-12T07:34:10;7.00;77.50
70456;DHT22;57916;51.996;5.180;2023-03-12T07:36:38;7.00;77.50
70456;DHT22;57916;51.996;5.180;2023-03-12T07:39:05;7.10;77.50
70456;DHT22;57916;51.996;5.180;2023-03-12T07:41:32;7.10;77.50
70456;DHT22;57916;51.996;5.180;2023-03-12T07:43:59;7.20;77.40
70456;DHT22;57916;51.996;5.180;2023-03-12T07:46:26;7.20;77.30
70456;DHT22;57916;51.996;5.180;2023-03-12T07:48:53;7.30;77.30
70456;DHT22;57916;51.996;5.180;2023-03-12T07:51:20;7.40;77.30
70456;DHT22;57916;51.996;5.180;2023-03-12T07:53:47;7.40;77.30
70456;DHT22;57916;51.996;5.180;2023-03-12T07:56:14;7.40;77.20
70456;DHT22;57916;51.996;5.180;2023-03-12T07:58:41;7.40;77.30
70456;DHT22;57916;51.996;5.180;2023-03-12T08:01:09;7.50;77.40
70456;DHT22;57916;51.996;5.180;2023-03-12T08:03:36;7.60;77.40
70456;DHT22;57916;51.996;5.180;2023-03-12T08:06:05;7.60;77.30
70456;DHT22;57916;51.996;5.180;2023-03-12T08:08:32;7.60;77.30
70456;DHT22;57916;51.996;5.180;2023-03-12T08:10:59;7.70;77.30
70456;DHT22;57916;51.996;5.180;2023-03-12T08:13:26;7.70;77.30
70456;DHT22;57916;51.996;5.180;2023-03-12T08:15:54;7.80;77.40
70456;DHT22;57916;51.996;5.180;2023-03-12T08:18:21;7.80;77.50
70456;DHT22;57916;51.996;5.180;2023-03-12T08:20:49;7.80;77.50
70456;DHT22;57916;51.996;5.180;2023-03-12T08:23:17;7.90;77.50
70456;DHT22;57916;51.996;5.180;2023-03-12T08:25:46;8.00;77.50
70456;DHT22;57916;51.996;5.180;2023-03-12T08:28:14;8.00;77.60
70456;DHT22;57916;51.996;5.180;2023-03-12T08:30:50;8.10;77.60
70456;DHT22;57916;51.996;5.180;2023-03-12T08:33:18;8.10;77.60
70456;DHT22;57916;51.996;5.180;2023-03-12T08:35:45;8.10;77.60
70456;DHT22;57916;51.996;5.180;2023-03-12T08:38:12;8.20;77.70
70456;DHT22;57916;51.996;5.180;2023-03-12T08:40:39;8.20;77.70
70456;DHT22;57916;51.996;5.180;2023-03-12T08:43:06;8.30;77.70
70456;DHT22;57916;51.996;5.180;2023-03-12T08:45:34;8.30;77.60
70456;DHT22;57916;51.996;5.180;2023-03-12T08:48:05;8.40;77.70
70456;DHT22;57916;51.996;5.180;2023-03-12T08:50:32;8.50;77.80
70456;DHT22;57916;51.996;5.180;2023-03-12T08:53:00;8.50;77.80
70456;DHT22;57916;51.996;5.180;2023-03-12T08:55:27;8.50;77.90
70456;DHT22;57916;51.996;5.180;2023-03-12T08:57:54;8.50;78.10
70456;DHT22;57916;51.996;5.180;2023-03-12T09:00:21;8.60;78.30
70456;DHT22;57916;51.996;5.180;2023-03-12T09:02:48;8.70;78.50
70456;DHT22;57916;51.996;5.180;2023-03-12T09:05:17;8.70;78.60
70456;DHT22;57916;51.996;5.180;2023-03-12T09:07:45;8.70;78.70
70456;DHT22;57916;51.996;5.180;2023-03-12T09:10:12;8.80;78.80
70456;DHT22;57916;51.996;5.180;2023-03-12T09:12:38;8.90;78.70
70456;DHT22;57916;51.996;5.180;2023-03-12T09:15:06;8.90;78.80
70456;DHT22;57916;51.996;5.180;2023-03-12T09:17:33;9.00;78.90
70456;DHT22;57916;51.996;5.180;2023-03-12T09:20:00;9.00;78.90
70456;DHT22;57916;51.996;5.180;2023-03-12T09:22:28;9.10;79.90
70456;DHT22;57916;51.996;5.180;2023-03-12T09:24:56;9.20;79.20
70456;DHT22;57916;51.996;5.180;2023-03-12T09:27:23;9.20;79.50
70456;DHT22;57916;51.996;5.180;2023-03-12T09:29:51;9.30;79.60
70456;DHT22;57916;51.996;5.180;2023-03-12T09:32:26;9.40;79.60
70456;DHT22;57916;51.996;5.180;2023-03-12T09:34:53;9.50;79.50
70456;DHT22;57916;51.996;5.180;2023-03-12T09:37:20;9.60;79.60
70456;DHT22;57916;51.996;5.180;2023-03-12T09:39:50;9.70;79.90
70456;DHT22;57916;51.996;5.180;2023-03-12T09:42:29;9.70;79.80
70456;DHT22;57916;51.996;5.180;2023-03-12T09:45:02;9.90;79.80
70456;DHT22;57916;51.996;5.180;2023-03-12T09:47:35;9.90;79.90
70456;DHT22;57916;51.996;5.180;2023-03-12T09:52:45;10.10;80.10
70456;DHT22;57916;51.996;5.180;2023-03-12T09:55:16;10.20;80.90
70456;DHT22;57916;51.996;5.180;2023-03-12T09:57:45;10.30;80.10
70456;DHT22;57916;51.996;5.180;2023-03-12T10:00:19;10.40;80.10
70456;DHT22;57916;51.996;5.180;2023-03-12T10:05:57;10.60;80.10
70456;DHT22;57916;51.996;5.180;2023-03-12T10:11:25;10.80;80.20
70456;DHT22;57916;51.996;5.180;2023-03-12T10:14:19;10.80;80.40
70456;DHT22;57916;51.996;5.180;2023-03-12T10:24:59;11.30;81.10
70456;DHT22;57916;51.996;5.180;2023-03-12T10:27:33;11.40;81.10
70456;DHT22;57916;51.996;5.180;2023-03-12T10:30:22;11.50;81.10
70456;DHT22;57916;51.996;5.180;2023-03-12T10:32:53;11.60;81.10
70456;DHT22;57916;51.996;5.180;2023-03-12T10:35:24;11.70;80.80
70456;DHT22;57916;51.996;5.180;2023-03-12T10:40:30;11.90;81.20
70456;DHT22;57916;51.996;5.180;2023-03-12T10:43:00;11.90;82.20
70456;DHT22;57916;51.996;5.180;2023-03-12T10:45:55;12.00;81.50
70456;DHT22;57916;51.996;5.180;2023-03-12T10:48:24;12.20;81.70
70456;DHT22;57916;51.996;5.180;2023-03-12T10:51:05;12.40;81.30
70456;DHT22;57916;51.996;5.180;2023-03-12T10:53:34;12.50;80.40
70456;DHT22;57916;51.996;5.180;2023-03-12T10:56:13;12.60;79.60
70456;DHT22;57916;51.996;5.180;2023-03-12T10:58:42;12.60;78.80
70456;DHT22;57916;51.996;5.180;2023-03-12T11:01:30;12.70;78.50
70456;DHT22;57916;51.996;5.180;2023-03-12T11:04:15;12.70;78.30
70456;DHT22;57916;51.996;5.180;2023-03-12T11:07:02;12.70;78.30
70456;DHT22;57916;51.996;5.180;2023-03-12T11:09:29;12.70;78.50
70456;DHT22;57916;51.996;5.180;2023-03-12T11:11:56;12.70;78.40
70456;DHT22;57916;51.996;5.180;2023-03-12T11:14:26;12.70;78.50
70456;DHT22;57916;51.996;5.180;2023-03-12T11:16:54;12.80;78.70
70456;DHT22;57916;51.996;5.180;2023-03-12T11:19:30;12.80;79.60
70456;DHT22;57916;51.996;5.180;2023-03-12T11:22:05;12.80;79.30
70456;DHT22;57916;51.996;5.180;2023-03-12T11:24:34;12.90;79.20
70456;DHT22;57916;51.996;5.180;2023-03-12T11:27:05;13.00;78.90
70456;DHT22;57916;51.996;5.180;2023-03-12T11:29:38;13.00;79.20
70456;DHT22;57916;51.996;5.180;2023-03-12T11:32:40;13.10;79.60
70456;DHT22;57916;51.996;5.180;2023-03-12T11:35:13;13.20;79.60
70456;DHT22;57916;51.996;5.180;2023-03-12T11:38:07;13.20;78.80
70456;DHT22;57916;51.996;5.180;2023-03-12T11:49:02;13.40;78.30
70456;DHT22;57916;51.996;5.180;2023-03-12T11:51:56;13.40;78.00
70456;DHT22;57916;51.996;5.180;2023-03-12T11:57:53;13.60;77.50
70456;DHT22;57916;51.996;5.180;2023-03-12T12:00:54;13.60;77.10
70456;DHT22;57916;51.996;5.180;2023-03-12T12:03:48;13.60;76.90
70456;DHT22;57916;51.996;5.180;2023-03-12T12:11:39;13.70;76.10
70456;DHT22;57916;51.996;5.180;2023-03-12T12:17:04;13.70;76.60
70456;DHT22;57916;51.996;5.180;2023-03-12T12:19:54;13.80;77.80
70456;DHT22;57916;51.996;5.180;2023-03-12T12:22:30;13.80;76.80
70456;DHT22;57916;51.996;5.180;2023-03-12T12:25:24;13.90;76.50
70456;DHT22;57916;51.996;5.180;2023-03-12T12:36:17;14.00;74.20
70456;DHT22;57916;51.996;5.180;2023-03-12T12:38:51;14.00;74.00
70456;DHT22;57916;51.996;5.180;2023-03-12T12:41:25;13.90;73.80
70456;DHT22;57916;51.996;5.180;2023-03-12T12:43:58;13.90;74.00
70456;DHT22;57916;51.996;5.180;2023-03-12T12:46:33;13.80;74.00
70456;DHT22;57916;51.996;5.180;2023-03-12T12:49:30;13.80;74.00
70456;DHT22;57916;51.996;5.180;2023-03-12T12:52:04;13.90;74.40
70456;DHT22;57916;51.996;5.180;2023-03-12T12:57:04;13.90;73.40
70456;DHT22;57916;51.996;5.180;2023-03-12T12:59:44;13.90;73.20
70456;DHT22;57916;51.996;5.180;2023-03-12T13:02:19;14.00;73.90
70456;DHT22;57916;51.996;5.180;2023-03-12T13:04:47;14.10;73.60
70456;DHT22;57916;51.996;5.180;2023-03-12T13:12:14;14.20;72.60
70456;DHT22;57916;51.996;5.180;2023-03-12T13:14:43;14.20;73.40
70456;DHT22;57916;51.996;5.180;2023-03-12T13:22:51;14.30;71.20
70456;DHT22;57916;51.996;5.180;2023-03-12T13:30:53;14.30;71.00
70456;DHT22;57916;51.996;5.180;2023-03-12T13:33:38;14.40;70.60
70456;DHT22;57916;51.996;5.180;2023-03-12T13:36:17;14.40;70.60
70456;DHT22;57916;51.996;5.180;2023-03-12T13:39:16;14.50;70.70
70456;DHT22;57916;51.996;5.180;2023-03-12T13:47:25;14.60;70.20
70456;DHT22;57916;51.996;5.180;2023-03-12T13:49:56;14.60;70.20
70456;DHT22;57916;51.996;5.180;2023-03-12T13:52:27;14.70;69.80
70456;DHT22;57916;51.996;5.180;2023-03-12T13:55:21;14.80;69.20
70456;DHT22;57916;51.996;5.180;2023-03-12T13:57:54;14.90;68.80
70456;DHT22;57916;51.996;5.180;2023-03-12T14:00:31;15.00;68.00
70456;DHT22;57916;51.996;5.180;2023-03-12T14:03:20;15.00;67.30
70456;DHT22;57916;51.996;5.180;2023-03-12T14:05:52;15.00;67.20
70456;DHT22;57916;51.996;5.180;2023-03-12T14:08:33;15.10;67.60
70456;DHT22;57916;51.996;5.180;2023-03-12T14:16:26;15.10;66.00
70456;DHT22;57916;51.996;5.180;2023-03-12T14:18:56;15.00;65.80
70456;DHT22;57916;51.996;5.180;2023-03-12T14:21:28;15.00;66.20
70456;DHT22;57916;51.996;5.180;2023-03-12T14:23:57;15.00;66.10
70456;DHT22;57916;51.996;5.180;2023-03-12T14:26:31;15.00;65.80
70456;DHT22;57916;51.996;5.180;2023-03-12T14:29:07;15.00;65.80
70456;DHT22;57916;51.996;5.180;2023-03-12T14:31:35;15.00;65.90
70456;DHT22;57916;51.996;5.180;2023-03-12T14:34:39;14.90;65.90
70456;DHT22;57916;51.996;5.180;2023-03-12T14:37:16;14.90;65.70
70456;DHT22;57916;51.996;5.180;2023-03-12T14:39:52;14.90;65.70
70456;DHT22;57916;51.996;5.180;2023-03-12T14:42:26;14.90;66.00
70456;DHT22;57916;51.996;5.180;2023-03-12T14:45:16;14.90;65.50
70456;DHT22;57916;51.996;5.180;2023-03-12T14:47:46;14.90;65.70
70456;DHT22;57916;51.996;5.180;2023-03-12T14:50:38;15.00;65.60
70456;DHT22;57916;51.996;5.180;2023-03-12T14:53:12;15.00;65.50
70456;DHT22;57916;51.996;5.180;2023-03-12T14:55:39;14.90;65.20
70456;DHT22;57916;51.996;5.180;2023-03-12T14:58:16;14.90;65.20
70456;DHT22;57916;51.996;5.180;2023-03-12T15:00:43;14.90;65.50
70456;DHT22;57916;51.996;5.180;2023-03-12T15:03:15;14.80;65.70
70456;DHT22;57916;51.996;5.180;2023-03-12T15:05:49;14.90;65.60
70456;DHT22;57916;51.996;5.180;2023-03-12T15:08:16;14.90;65.60
70456;DHT22;57916;51.996;5.180;2023-03-12T15:10:53;14.90;65.20
70456;DHT22;57916;51.996;5.180;2023-03-12T15:13:21;15.00;64.90
70456;DHT22;57916;51.996;5.180;2023-03-12T15:15:54;15.00;64.90
70456;DHT22;57916;51.996;5.180;2023-03-12T15:18:29;15.00;65.00
70456;DHT22;57916;51.996;5.180;2023-03-12T15:21:00;15.00;64.90
70456;DHT22;57916;51.996;5.180;2023-03-12T15:23:33;15.00;65.00
70456;DHT22;57916;51.996;5.180;2023-03-12T15:29:23;15.10;64.80
70456;DHT22;57916;51.996;5.180;2023-03-12T15:31:55;15.10;64.60
70456;DHT22;57916;51.996;5.180;2023-03-12T15:34:34;15.10;63.90
70456;DHT22;57916;51.996;5.180;2023-03-12T15:37:25;15.00;63.80
70456;DHT22;57916;51.996;5.180;2023-03-12T15:40:00;14.90;63.80
70456;DHT22;57916;51.996;5.180;2023-03-12T15:42:28;14.90;64.40
70456;DHT22;57916;51.996;5.180;2023-03-12T15:44:58;14.90;64.60
70456;DHT22;57916;51.996;5.180;2023-03-12T15:47:30;14.90;64.50
70456;DHT22;57916;51.996;5.180;2023-03-12T15:50:02;14.80;65.70
70456;DHT22;57916;51.996;5.180;2023-03-12T15:52:33;14.80;65.00
70456;DHT22;57916;51.996;5.180;2023-03-12T15:57:55;14.70;65.40
70456;DHT22;57916;51.996;5.180;2023-03-12T16:05:33;14.70;66.20
70456;DHT22;57916;51.996;5.180;2023-03-12T16:08:19;14.70;66.10
70456;DHT22;57916;51.996;5.180;2023-03-12T16:10:51;14.70;66.20
70456;DHT22;57916;51.996;5.180;2023-03-12T16:13:20;14.70;66.20
70456;DHT22;57916;51.996;5.180;2023-03-12T16:15:48;14.70;66.40
70456;DHT22;57916;51.996;5.180;2023-03-12T16:18:18;14.60;66.40
70456;DHT22;57916;51.996;5.180;2023-03-12T16:20:46;14.60;66.10
70456;DHT22;57916;51.996;5.180;2023-03-12T16:23:14;14.50;66.50
70456;DHT22;57916;51.996;5.180;2023-03-12T16:25:43;14.50;66.50
70456;DHT22;57916;51.996;5.180;2023-03-12T16:28:13;14.50;67.50
70456;DHT22;57916;51.996;5.180;2023-03-12T16:30:41;14.40;66.60
70456;DHT22;57916;51.996;5.180;2023-03-12T16:33:13;14.40;66.70
70456;DHT22;57916;51.996;5.180;2023-03-12T16:35:40;14.40;66.80
70456;DHT22;57916;51.996;5.180;2023-03-12T16:38:07;14.30;66.90
70456;DHT22;57916;51.996;5.180;2023-03-12T16:40:37;14.30;67.00
70456;DHT22;57916;51.996;5.180;2023-03-12T16:43:10;14.30;67.10
70456;DHT22;57916;51.996;5.180;2023-03-12T16:45:42;14.30;67.10
70456;DHT22;57916;51.996;5.180;2023-03-12T16:48:14;14.20;66.80
70456;DHT22;57916;51.996;5.180;2023-03-12T16:50:50;14.10;67.10
70456;DHT22;57916;51.996;5.180;2023-03-12T16:53:18;14.10;67.30
70456;DHT22;57916;51.996;5.180;2023-03-12T16:55:55;14.00;67.40
70456;DHT22;57916;51.996;5.180;2023-03-12T16:58:27;14.00;67.70
70456;DHT22;57916;51.996;5.180;2023-03-12T17:00:55;13.90;67.90
70456;DHT22;57916;51.996;5.180;2023-03-12T17:03:30;13.90;68.20
70456;DHT22;57916;51.996;5.180;2023-03-12T17:06:00;13.80;68.40
70456;DHT22;57916;51.996;5.180;2023-03-12T17:08:27;13.80;68.50
70456;DHT22;57916;51.996;5.180;2023-03-12T17:10:55;13.80;68.60
70456;DHT22;57916;51.996;5.180;2023-03-12T17:13:27;13.80;68.80
70456;DHT22;57916;51.996;5.180;2023-03-12T17:15:54;13.70;68.90
70456;DHT22;57916;51.996;5.180;2023-03-12T17:18:22;13.70;69.10
70456;DHT22;57916;51.996;5.180;2023-03-12T17:20:49;13.60;69.30
70456;DHT22;57916;51.996;5.180;2023-03-12T17:23:18;13.60;69.50
70456;DHT22;57916;51.996;5.180;2023-03-12T17:25:45;13.50;69.40
70456;DHT22;57916;51.996;5.180;2023-03-12T17:28:12;13.50;69.60
70456;DHT22;57916;51.996;5.180;2023-03-12T17:30:41;13.40;69.90
70456;DHT22;57916;51.996;5.180;2023-03-12T17:33:16;13.40;69.80
70456;DHT22;57916;51.996;5.180;2023-03-12T17:35:44;13.40;69.80
70456;DHT22;57916;51.996;5.180;2023-03-12T17:38:11;13.40;69.80